Terminal Aerodrome Forecast
Issued by NWS Omaha/Valley, NE

Current Version | Previous Version | Text Only | Print | Product List | Glossary On
Versions: 1 2 3 4 5 6 7 8 9 10 11 12 13 14 15 16
000
FTUS43 KOAX 242320
TAFOFK
TAF
KOFK 242320Z 2500/2524 32011G18KT P6SM FEW120
     FM250100 25006KT P6SM SKC
     FM251200 15007KT P6SM SCT090 BKN150
     FM251900 35010KT P6SM FEW060=

USA.gov is the U.S. government's official web portal to all federal, state and local government web resources and services.